To NAV CANADA Home Page Login to a new session Search on AWWS site Feedback and Comments Disclaimer Vers la page française équivalente Tips FAQ What's new on the site To the Forecasts and Observations / NOTAM section To "File a Flight Plan" website Publications and other links Update of the User's profile FIC Telephone Numbers My Weather Data Folder Route Weather Data Regional Weather Data Local Weather Data To the Forecasts and Observations / NOTAM section
Request Generated 03/29/2015 at 19:28:50 UTC . Weather information available at that time is displayed.

METAR/TAF

TORONTO/LESTER B. PEARSON INTL/ON    

METAR CYYZ 291900Z 20017G24KT 15SM FEW170 SCT220 06/M11 A3007 RMK
AC1CI3 PRESFR SLP191=
METAR CYYZ 291800Z 21018G25KT 15SM SCT220 05/M11 A3012 RMK CI3 PRESFR
SLP206=
METAR CYYZ 291700Z 20012G19KT 15SM FEW170 SCT240 04/M08 A3016 RMK
AC1CI2 SLP222=

TAF CYYZ 291738Z 2918/3024 20015G25KT P6SM FEW170
FM292300 20020G30KT P6SM OVC120
FM300100 21020G30KT 5SM -SNRA BR OVC040
FM300400 21020G30KT 2SM -SNRA BR OVC020
FM300900 28022G32KT P6SM BKN030
FM301300 29020G35KT P6SM SCT030
FM302100 30022G32KT P6SM SKC
RMK NXT FCST BY 292100Z=
Your time UTC time
Weather data provided by Environment Canada and NAV CANADA